HWI weather

I.M.S.S. Heliport
Benito Juarez, Distrito Federal, Mexico

Public forecast

Using degrees Celsius for public forecast. Weather courtesy of forecast.io.

METAR (pilot weather report)

Closest report is Licenciado Benito Juarez International Airport, 5.8 nm (10.8 km) E. Retrieved 2019/08/17 22:43 UTC (0 seconds ago):

MMMX 172243Z 08012G22KT 7SM BKN020CB BKN080 24/12 A3021 NOSIG RMK 8/360 HZY ISOL CI

TAF (pilot weather forecast)

Closest forecast is Licenciado Benito Juarez International Airport, 5.8 nm (10.8 km) E. Retrieved 2019/08/17 18:21 UTC (4 hours ago):

TAF MMMX 171713Z 1718/1824 06010KT P6SM BKN025 TX27/1721Z TN14/1812Z FM172200 04015KT 6SM VC TSRA BKN020CB TEMPO 1722/1802 4SM TSRA FM180200 00000KT 5SM RA BKN020 OVC080 FM180300 04010KT P6SM SCT020 BKN100 FM181500 00000KT 5SM HZ SCT020 PROB40 1820/1824 4SM TSRA BKN025CB